createdAt,value
2022-12-23T00:01:27.907Z,99073.47
2022-12-23T00:03:58.349Z,99068.31
2022-12-23T00:06:25.374Z,99064.03
2022-12-23T00:08:58.410Z,99064.91
2022-12-23T00:11:26.806Z,99063.16
2022-12-23T00:14:18.438Z,99064.03
2022-12-23T00:16:48.172Z,99065.75
2022-12-23T00:19:14.762Z,99062.34
2022-12-23T00:21:41.288Z,99076.94
2022-12-23T00:24:07.942Z,99076.06
2022-12-23T00:26:34.517Z,99066.59
2022-12-23T00:29:01.051Z,99076.91
2022-12-23T00:31:27.658Z,99076.94
2022-12-23T00:33:54.421Z,99078.66
2022-12-23T00:36:25.119Z,99078.66
2022-12-23T00:39:12.175Z,99077.81
2022-12-23T00:41:59.047Z,99085.56
2022-12-23T00:44:25.796Z,99083.84
2022-12-23T00:46:52.404Z,99082.13
2022-12-23T00:49:40.277Z,99093.31
2022-12-23T00:52:10.767Z,99082.16
2022-12-23T00:54:37.469Z,99091.63
2022-12-23T00:57:04.501Z,99083.03
2022-12-23T00:59:31.099Z,99089.94
2022-12-23T01:02:17.639Z,99087.34
2022-12-23T01:05:04.224Z,99082.22
2022-12-23T01:07:30.868Z,99061.56
2022-12-23T01:09:57.435Z,99070.19
2022-12-23T01:12:23.990Z,99074.47
2022-12-23T01:14:50.556Z,99073.59
2022-12-23T01:17:18.347Z,99068.47
2022-12-23T01:19:45.020Z,99068.47
2022-12-23T01:22:11.634Z,99061.59
2022-12-23T01:24:38.195Z,99056.44
2022-12-23T01:27:04.760Z,99059.91
2022-12-23T01:29:31.394Z,99053.03
2022-12-23T01:31:58.062Z,99041.00
2022-12-23T01:34:24.659Z,99041.84
2022-12-23T01:36:51.244Z,99034.13
2022-12-23T01:39:17.876Z,99030.69
2022-12-23T01:42:04.428Z,99042.75
2022-12-23T01:44:50.585Z,99046.28
2022-12-23T01:47:32.058Z,99065.19
2022-12-23T01:50:04.822Z,99080.69
2022-12-23T01:52:36.154Z,99082.44
2022-12-23T01:55:02.812Z,99066.97
2022-12-23T01:57:29.691Z,99070.44
2022-12-23T02:00:16.273Z,99076.44
2022-12-23T02:03:03.611Z,99082.47
2022-12-23T02:05:30.665Z,99109.94
2022-12-23T02:08:17.888Z,99111.69
2022-12-23T02:11:04.759Z,99109.09
2022-12-23T02:14:03.270Z,99107.34
2022-12-23T02:16:34.973Z,99112.50
2022-12-23T02:25:15.772Z,99104.56
2022-12-23T02:30:25.100Z,99078.91
2022-12-23T02:38:45.836Z,99077.28
2022-12-23T02:44:02.816Z,99056.69
2022-12-23T02:46:38.467Z,99064.41
2022-12-23T02:49:12.063Z,99072.16
2022-12-23T02:51:44.355Z,99069.59
2022-12-23T02:54:18.310Z,99070.44
2022-12-23T02:56:49.181Z,99065.31
2022-12-23T02:59:20.395Z,99072.22
2022-12-23T03:01:49.981Z,99067.97
2022-12-23T03:04:16.636Z,99077.41
2022-12-23T03:06:48.331Z,99073.16
2022-12-23T03:09:24.753Z,99057.72
2022-12-23T03:12:02.944Z,99056.00
2022-12-23T03:14:53.762Z,99057.75
2022-12-23T03:23:03.809Z,99062.03
2022-12-23T03:25:35.980Z,99070.63
2022-12-23T03:30:46.426Z,99060.38
2022-12-23T03:33:18.923Z,99067.28
2022-12-23T03:35:55.594Z,99056.16
2022-12-23T03:38:23.665Z,99039.84
2022-12-23T03:40:56.328Z,99037.25
2022-12-23T03:43:33.175Z,99049.28
2022-12-23T03:46:01.841Z,99047.63
2022-12-23T03:48:41.090Z,99056.16
2022-12-23T03:51:14.647Z,99054.47
2022-12-23T03:53:49.630Z,99061.31
2022-12-23T03:56:23.197Z,99059.63
2022-12-23T04:09:36.112Z,99026.25
2022-12-23T04:12:03.282Z,99029.69
2022-12-23T04:14:30.385Z,99021.13
2022-12-23T04:16:58.500Z,99009.09
2022-12-23T04:19:25.389Z,98999.66
2022-12-23T04:21:54.162Z,99014.22
2022-12-23T04:24:20.714Z,99009.16
2022-12-23T04:26:47.255Z,99013.41
2022-12-23T04:29:13.805Z,99016.00
2022-12-23T04:31:40.555Z,99028.03
2022-12-23T04:34:07.193Z,99024.66
2022-12-23T04:36:33.731Z,99026.34
2022-12-23T04:39:00.472Z,99028.97
2022-12-23T04:41:27.052Z,99028.09
2022-12-23T04:43:53.708Z,99011.78
2022-12-23T04:46:20.874Z,99018.66
2022-12-23T04:48:47.558Z,99010.09
2022-12-23T04:51:14.188Z,99014.41
2022-12-23T04:53:40.795Z,99021.25
2022-12-23T04:56:07.397Z,99022.94
2022-12-23T04:58:34.027Z,99022.97
2022-12-23T05:01:10.429Z,99014.41
2022-12-23T05:03:38.660Z,99014.41
2022-12-23T05:06:05.961Z,98995.53
2022-12-23T05:08:33.135Z,98975.81
2022-12-23T05:10:59.679Z,98968.09
2022-12-23T05:13:26.860Z,98961.25
2022-12-23T05:15:54.649Z,98960.38
2022-12-23T05:18:22.137Z,98972.38
2022-12-23T05:20:49.444Z,98972.38
2022-12-23T05:23:16.149Z,98966.41
2022-12-23T05:25:42.743Z,98956.13
2022-12-23T05:28:09.633Z,98963.84
2022-12-23T05:30:36.497Z,98956.94
2022-12-23T05:33:03.180Z,98957.81
2022-12-23T05:35:29.773Z,98953.53
2022-12-23T05:37:57.804Z,98956.09
2022-12-23T05:40:29.485Z,98950.97
2022-12-23T05:42:57.881Z,98947.50
2022-12-23T05:45:24.599Z,98931.19
2022-12-23T05:47:51.124Z,98916.59
2022-12-23T05:50:18.632Z,98910.63
2022-12-23T05:52:45.190Z,98901.16
2022-12-23T05:55:11.748Z,98909.72
2022-12-23T05:57:38.338Z,98911.44
2022-12-23T06:00:05.301Z,98897.69
2022-12-23T06:02:31.962Z,98881.38
2022-12-23T06:04:58.635Z,98874.53
2022-12-23T06:07:25.245Z,98883.97
2022-12-23T06:09:51.864Z,98885.69
2022-12-23T06:12:18.379Z,98860.81
2022-12-23T06:14:44.964Z,98856.53
2022-12-23T06:17:11.490Z,98853.09
2022-12-23T06:19:38.046Z,98844.53
2022-12-23T06:22:04.653Z,98835.94
2022-12-23T06:24:31.220Z,98832.53
2022-12-23T06:26:57.823Z,98830.84
2022-12-23T06:29:24.993Z,98833.53
2022-12-23T06:31:51.672Z,98832.66
2022-12-23T06:34:18.419Z,98812.94
2022-12-23T06:36:44.974Z,98806.06
2022-12-23T06:39:11.899Z,98791.50
2022-12-23T06:41:38.479Z,98801.84
2022-12-23T06:44:05.330Z,98795.94
2022-12-23T06:46:32.185Z,98771.03
2022-12-23T06:48:58.827Z,98753.03
2022-12-23T06:51:25.384Z,98739.31
2022-12-23T06:53:51.909Z,98735.03
2022-12-23T06:56:18.892Z,98725.69
2022-12-23T06:58:45.452Z,98741.94
2022-12-23T07:01:12.226Z,98751.41
2022-12-23T07:03:38.952Z,98760.81
2022-12-23T07:06:05.855Z,98756.56
2022-12-23T07:08:32.399Z,98755.72
2022-12-23T07:11:00.126Z,98756.59
2022-12-23T07:13:27.093Z,98747.19
2022-12-23T07:15:53.650Z,98721.44
2022-12-23T07:18:22.935Z,98709.44
2022-12-23T07:20:50.817Z,98707.72
2022-12-23T07:23:17.536Z,98709.53
2022-12-23T07:25:44.654Z,98714.66
2022-12-23T07:28:11.183Z,98719.81
2022-12-23T07:30:37.756Z,98724.97
2022-12-23T07:33:04.332Z,98726.69
2022-12-23T07:35:30.880Z,98738.69
2022-12-23T07:37:57.480Z,98753.22
2022-12-23T07:40:24.918Z,98751.53
2022-12-23T07:42:56.843Z,98755.81
2022-12-23T07:45:24.260Z,98757.53
2022-12-23T07:47:54.368Z,98760.94
2022-12-23T07:50:22.103Z,98751.53
2022-12-23T07:52:48.863Z,98743.81
2022-12-23T07:55:15.492Z,98728.41
2022-12-23T07:57:42.064Z,98720.63
2022-12-23T08:00:11.543Z,98721.44
2022-12-23T08:02:38.450Z,98712.91
2022-12-23T08:05:05.665Z,98704.31
2022-12-23T08:07:32.350Z,98700.00
2022-12-23T08:09:58.910Z,98688.03
2022-12-23T08:12:26.115Z,98677.75
2022-12-23T08:14:52.930Z,98671.72
2022-12-23T08:17:21.648Z,98654.53
2022-12-23T08:19:48.950Z,98645.94
2022-12-23T08:22:16.000Z,98634.81
2022-12-23T08:24:42.523Z,98635.66
2022-12-23T08:27:09.106Z,98645.97
2022-12-23T08:29:36.621Z,98637.41
2022-12-23T08:32:03.583Z,98635.69
2022-12-23T08:34:30.147Z,98635.75
2022-12-23T08:36:56.745Z,98644.25
2022-12-23T08:39:23.297Z,98638.31
2022-12-23T08:41:49.861Z,98640.88
2022-12-23T08:44:17.481Z,98651.97
2022-12-23T08:46:44.358Z,98635.72
2022-12-23T08:49:11.311Z,98612.53
2022-12-23T08:51:38.668Z,98609.94
2022-12-23T08:54:06.235Z,98604.00
2022-12-23T08:56:36.299Z,98585.97
2022-12-23T08:59:04.450Z,98579.09
2022-12-23T09:01:33.627Z,98580.78
2022-12-23T09:04:05.328Z,98575.63
2022-12-23T09:06:36.875Z,98559.38
2022-12-23T09:09:04.316Z,98561.88
2022-12-23T09:11:31.227Z,98558.47
2022-12-23T09:13:59.780Z,98567.00
2022-12-23T09:16:26.642Z,98554.16
2022-12-23T09:18:53.426Z,98550.75
2022-12-23T09:21:21.705Z,98565.28
2022-12-23T09:23:48.775Z,98562.72
2022-12-23T09:26:21.502Z,98569.56
2022-12-23T09:28:48.069Z,98568.66
2022-12-23T09:31:15.463Z,98563.50
2022-12-23T09:33:42.468Z,98572.09
2022-12-23T09:36:09.512Z,98563.50
2022-12-23T09:38:36.314Z,98572.91
2022-12-23T09:46:51.255Z,98553.34
2022-12-23T09:49:19.713Z,98543.06
2022-12-23T09:51:47.190Z,98526.75
2022-12-23T09:54:38.246Z,98517.34
2022-12-23T10:00:11.590Z,98508.00
2022-12-23T10:05:56.290Z,98513.97
2022-12-23T10:08:33.505Z,98505.41
2022-12-23T10:11:07.711Z,98501.94
2022-12-23T10:16:19.213Z,98488.16
2022-12-23T10:19:14.750Z,98487.28
2022-12-23T10:24:23.114Z,98475.19
2022-12-23T10:26:56.413Z,98475.19
2022-12-23T10:29:25.836Z,98475.16
2022-12-23T10:32:32.290Z,98476.94
2022-12-23T10:35:28.759Z,98481.19
2022-12-23T10:41:08.824Z,98469.16
2022-12-23T10:43:55.688Z,98472.63
2022-12-23T10:54:49.498Z,98447.59
2022-12-23T10:57:18.715Z,98438.09
2022-12-23T10:59:45.925Z,98430.44
2022-12-23T11:04:50.059Z,98434.72
2022-12-23T11:10:16.987Z,98427.91
2022-12-23T11:12:47.488Z,98430.44
2022-12-23T11:15:36.155Z,98426.19
2022-12-23T11:20:46.189Z,98427.06
2022-12-23T11:23:31.677Z,98427.03
2022-12-23T11:26:02.634Z,98427.03
2022-12-23T11:28:31.274Z,98423.53
2022-12-23T11:31:12.057Z,98426.06
2022-12-23T11:33:45.869Z,98423.47
2022-12-23T11:38:54.604Z,98429.41
2022-12-23T11:41:23.624Z,98437.09
2022-12-23T11:44:28.962Z,98439.63
2022-12-23T11:46:55.641Z,98434.41
2022-12-23T11:52:19.000Z,98428.34
2022-12-23T11:54:54.914Z,98430.00
2022-12-23T11:57:30.271Z,98429.09
2022-12-23T12:00:01.781Z,98431.63
2022-12-23T12:07:43.637Z,98437.56
2022-12-23T12:10:18.263Z,98428.97
2022-12-23T12:12:48.751Z,98435.78
2022-12-23T12:15:27.268Z,98416.88
2022-12-23T12:17:56.631Z,98411.69
2022-12-23T12:20:38.887Z,98412.56
2022-12-23T12:23:13.178Z,98406.53
2022-12-23T12:25:46.854Z,98394.50
2022-12-23T12:28:21.185Z,98392.69
2022-12-23T12:30:53.904Z,98392.59
2022-12-23T12:33:30.302Z,98392.53
2022-12-23T12:36:09.836Z,98393.38
2022-12-23T12:38:39.158Z,98400.19
2022-12-23T12:44:33.478Z,98413.97
2022-12-23T12:47:28.188Z,98400.22
2022-12-23T12:49:59.639Z,98404.56
2022-12-23T12:52:28.078Z,98401.09
2022-12-23T12:57:36.639Z,98403.88
2022-12-23T13:00:06.881Z,98400.81
2022-12-23T13:10:57.014Z,98414.59
2022-12-23T13:13:31.894Z,98400.91
2022-12-23T13:16:27.869Z,98397.44
2022-12-23T13:27:03.158Z,98406.66
2022-12-23T13:32:33.592Z,98410.91
2022-12-23T13:35:39.947Z,98400.59
2022-12-23T13:43:49.660Z,98405.56
2022-12-23T13:49:08.633Z,98421.00
2022-12-23T13:56:58.022Z,98424.59
2022-12-23T13:59:39.372Z,98422.94
2022-12-23T14:02:42.716Z,98420.38
2022-12-23T14:08:08.244Z,98407.63
2022-12-23T14:10:36.181Z,98407.97
2022-12-23T14:13:08.489Z,98415.69
2022-12-23T14:20:55.262Z,98425.84
2022-12-23T14:26:25.188Z,98419.75
2022-12-23T14:31:41.286Z,98420.69
2022-12-23T14:34:30.810Z,98411.31
2022-12-23T14:39:59.375Z,98410.47
2022-12-23T14:42:43.526Z,98404.94
2022-12-23T14:45:42.706Z,98412.78
2022-12-23T14:48:49.070Z,98417.13
2022-12-23T14:51:37.906Z,98420.53
2022-12-23T15:02:21.114Z,98443.53
2022-12-23T15:04:55.459Z,98438.34
2022-12-23T15:07:28.841Z,98429.69
2022-12-23T15:10:01.042Z,98443.41
2022-12-23T15:15:25.060Z,98451.94
2022-12-23T15:18:12.509Z,98454.53
2022-12-23T15:20:39.853Z,98459.56
2022-12-23T15:23:14.296Z,98452.69
2022-12-23T15:25:46.081Z,98452.69
2022-12-23T15:28:18.702Z,98452.69
2022-12-23T15:30:51.189Z,98445.84
2022-12-23T15:34:00.782Z,98454.38
2022-12-23T15:36:10.201Z,98453.53
2022-12-23T15:38:38.796Z,98453.53
2022-12-23T15:41:15.012Z,98463.00
2022-12-23T15:43:43.601Z,98451.81
2022-12-23T15:46:17.210Z,98461.25
2022-12-23T15:48:44.164Z,98459.50
2022-12-23T15:51:30.604Z,98461.13
2022-12-23T15:54:06.220Z,98462.78
2022-12-23T15:56:38.786Z,98464.41
2022-12-23T15:59:06.398Z,98468.69
2022-12-23T16:01:38.910Z,98473.75
2022-12-23T16:04:08.926Z,98478.91
2022-12-23T16:06:36.702Z,98476.25
2022-12-23T16:27:39.054Z,98511.81
2022-12-23T16:30:15.653Z,98516.06
2022-12-23T16:32:50.734Z,98520.31
2022-12-23T16:38:27.165Z,98522.84
2022-12-23T16:40:56.404Z,98518.56
2022-12-23T16:43:24.643Z,98532.28
2022-12-23T16:45:56.355Z,98519.41
2022-12-23T16:51:02.117Z,98535.72
2022-12-23T16:53:29.249Z,98535.69
2022-12-23T16:56:00.568Z,98536.56
2022-12-23T16:58:27.523Z,98544.38
2022-12-23T17:00:54.206Z,98555.50
2022-12-23T17:03:21.141Z,98550.31
2022-12-23T17:05:48.215Z,98554.59
2022-12-23T17:08:14.981Z,98555.41
2022-12-23T17:10:44.485Z,98555.38
2022-12-23T17:13:14.397Z,98548.44
2022-12-23T17:15:41.005Z,98558.72
2022-12-23T17:18:18.025Z,98565.66
2022-12-23T17:20:48.034Z,98574.22
2022-12-23T17:23:32.496Z,98573.47
2022-12-23T17:25:59.160Z,98575.16
2022-12-23T17:28:32.011Z,98592.38
2022-12-23T17:30:59.177Z,98604.41
2022-12-23T17:33:29.435Z,98605.22
2022-12-23T17:35:56.074Z,98610.53
2022-12-23T17:38:22.830Z,98608.69
2022-12-23T17:40:50.212Z,98612.97
2022-12-23T17:43:18.149Z,98619.88
2022-12-23T17:45:45.703Z,98631.16
2022-12-23T17:48:19.719Z,98632.06
2022-12-23T17:50:46.846Z,98625.31
2022-12-23T17:53:14.949Z,98630.47
2022-12-23T17:55:41.883Z,98628.00
2022-12-23T17:58:08.671Z,98623.78
2022-12-23T18:00:35.800Z,98626.38
2022-12-23T18:03:05.065Z,98632.44
2022-12-23T18:05:35.088Z,98635.84
2022-12-23T18:08:03.192Z,98643.63
2022-12-23T18:10:34.042Z,98649.63
2022-12-23T18:13:04.856Z,98659.06
2022-12-23T18:15:36.666Z,98656.50
2022-12-23T18:18:15.870Z,98663.44
2022-12-23T18:20:46.554Z,98660.78
2022-12-23T18:23:15.494Z,98653.84
2022-12-23T18:25:42.230Z,98658.97
2022-12-23T18:28:11.118Z,98653.88
2022-12-23T18:30:38.454Z,98654.75
2022-12-23T18:33:08.719Z,98658.25
2022-12-23T18:35:39.621Z,98663.69
2022-12-23T18:38:06.251Z,98661.88
2022-12-23T18:40:33.283Z,98670.50
2022-12-23T18:43:00.642Z,98664.50
2022-12-23T18:45:37.709Z,98677.47
2022-12-23T18:48:07.333Z,98672.31
2022-12-23T18:50:35.994Z,98684.41
2022-12-23T18:53:02.996Z,98689.59
2022-12-23T18:55:30.442Z,98699.13
2022-12-23T18:57:58.999Z,98701.75
2022-12-23T19:00:28.665Z,98706.94
2022-12-23T19:02:56.311Z,98716.47
2022-12-23T19:05:26.863Z,98720.75
2022-12-23T19:07:56.158Z,98721.69
2022-12-23T19:10:27.239Z,98723.47
2022-12-23T19:12:54.524Z,98730.38
2022-12-23T19:15:21.983Z,98735.56
2022-12-23T19:17:50.340Z,98736.47
2022-12-23T19:20:18.969Z,98743.38
2022-12-23T19:22:46.981Z,98742.53
2022-12-23T19:25:16.733Z,98745.13
2022-12-23T19:27:44.334Z,98753.75
2022-12-23T19:30:14.579Z,98758.94
2022-12-23T19:32:41.220Z,98759.84
2022-12-23T19:35:08.515Z,98762.44
2022-12-23T19:37:36.400Z,98768.50
2022-12-23T19:40:04.253Z,98771.94
2022-12-23T19:42:30.872Z,98772.81
2022-12-23T19:44:57.481Z,98769.44
2022-12-23T19:47:24.134Z,98790.06
2022-12-23T19:49:50.657Z,98791.78
2022-12-23T19:52:17.298Z,98792.69
2022-12-23T19:54:43.930Z,98797.88
2022-12-23T19:57:10.494Z,98807.38
2022-12-23T19:59:37.306Z,98807.44
2022-12-23T20:02:03.962Z,98809.19
2022-12-23T20:04:31.976Z,98809.22
2022-12-23T20:06:58.518Z,98812.69
2022-12-23T20:09:25.109Z,98819.56
2022-12-23T20:11:51.643Z,98818.75
2022-12-23T20:14:19.561Z,98817.91
2022-12-23T20:16:48.370Z,98819.66
2022-12-23T20:19:17.140Z,98820.56
2022-12-23T20:21:45.802Z,98822.25
2022-12-23T20:24:14.369Z,98823.16
2022-12-23T20:26:41.543Z,98835.19
2022-12-23T20:29:09.253Z,98829.22
2022-12-23T20:31:37.761Z,98836.97
2022-12-23T20:34:07.415Z,98829.25
2022-12-23T20:36:36.098Z,98838.75
2022-12-23T20:39:03.784Z,98835.34
2022-12-23T20:41:31.461Z,98837.91
2022-12-23T20:46:45.532Z,98830.25
2022-12-23T20:49:12.732Z,98838.84
2022-12-23T20:51:39.241Z,98836.31
2022-12-23T20:54:05.815Z,98826.03
2022-12-23T20:56:32.437Z,98844.88
2022-12-23T20:59:00.320Z,98837.19
2022-12-23T21:01:30.932Z,98834.59
2022-12-23T21:03:59.458Z,98839.81
2022-12-23T21:06:26.599Z,98844.09
2022-12-23T21:08:55.789Z,98847.56
2022-12-23T21:11:23.413Z,98851.03
2022-12-23T21:13:51.114Z,98849.28
2022-12-23T21:16:17.940Z,98858.78
2022-12-23T21:18:50.557Z,98852.75
2022-12-23T21:21:17.197Z,98867.38
2022-12-23T21:23:44.024Z,98868.25
2022-12-23T21:26:14.346Z,98871.69
2022-12-23T21:28:41.576Z,98863.16
2022-12-23T21:31:08.575Z,98870.00
2022-12-23T21:33:36.932Z,98880.31
2022-12-23T21:36:04.105Z,98874.31
2022-12-23T21:38:33.167Z,98881.19
2022-12-23T21:41:01.609Z,98885.50
2022-12-23T21:43:28.678Z,98882.94
2022-12-23T21:45:57.328Z,98888.09
2022-12-23T21:48:24.000Z,98885.50
2022-12-23T21:50:50.621Z,98890.66
2022-12-23T21:53:17.204Z,98898.41
2022-12-23T21:55:43.734Z,98895.81
2022-12-23T21:58:10.299Z,98894.94
2022-12-23T22:00:36.929Z,98893.25
2022-12-23T22:03:03.673Z,98889.81
2022-12-23T22:05:30.219Z,98896.69
2022-12-23T22:07:56.742Z,98907.81
2022-12-23T22:10:23.325Z,98908.69
2022-12-23T22:12:49.872Z,98911.28
2022-12-23T22:15:17.458Z,98907.88
2022-12-23T22:17:44.006Z,98924.16
2022-12-23T22:20:11.197Z,98919.88
2022-12-23T22:22:37.727Z,98917.31
2022-12-23T22:25:04.654Z,98930.16
2022-12-23T22:27:31.224Z,98927.56
2022-12-23T22:29:57.758Z,98927.56
2022-12-23T22:32:24.325Z,98928.41
2022-12-23T22:34:50.878Z,98924.09
2022-12-23T22:37:17.512Z,98917.22
2022-12-23T22:39:44.152Z,98928.38
2022-12-23T22:42:10.743Z,98924.94
2022-12-23T22:44:37.305Z,98933.53
2022-12-23T22:47:03.922Z,98931.84
2022-12-23T22:49:30.548Z,98932.72
2022-12-23T22:51:57.087Z,98927.59
2022-12-23T22:54:23.634Z,98934.47
2022-12-23T22:56:50.178Z,98935.31
2022-12-23T22:59:20.552Z,98931.03
2022-12-23T23:01:47.757Z,98931.06
2022-12-23T23:04:14.403Z,98931.94
2022-12-23T23:06:41.922Z,98937.06
2022-12-23T23:09:12.739Z,98935.34
2022-12-23T23:11:39.754Z,98935.38
2022-12-23T23:14:06.367Z,98938.81
2022-12-23T23:16:33.551Z,98943.06
2022-12-23T23:19:00.643Z,98952.53
2022-12-23T23:21:27.299Z,98940.50
2022-12-23T23:23:53.871Z,98951.63
2022-12-23T23:26:20.897Z,98955.91
2022-12-23T23:28:47.880Z,98955.91
2022-12-23T23:31:41.000Z,98961.03
2022-12-23T23:34:01.131Z,98969.59
2022-12-23T23:36:27.752Z,98973.88
2022-12-23T23:38:54.400Z,98978.19
2022-12-23T23:41:23.624Z,98975.59
2022-12-23T23:43:51.207Z,98969.59
2022-12-23T23:46:18.019Z,98977.31
2022-12-23T23:48:44.690Z,98978.13
2022-12-23T23:51:12.546Z,98980.75
2022-12-23T23:53:39.345Z,98982.47
2022-12-23T23:56:07.007Z,98974.72
2022-12-23T23:58:35.481Z,98983.28
